Time;durP1;ratioP1;P1;durP2;ratioP2;P2;SDS_P1;SDS_P2;PMS_P1;PMS_P2;Temp;Humidity;BMP_temperature;BMP_pressure;BME280_temperature;BME280_humidity;BME280_pressure;Samples;Min_cycle;Max_cycle;Signal;HPM_P1;HPM_P2
2023/07/08 00:01:59;;;;;;;4.53;3.50;;;16.70;99.90;;;;;;5017195;28;20204;-50
2023/07/08 00:04:26;;;;;;;4.03;3.53;;;16.60;99.90;;;;;;4991637;28;20412;-56
2023/07/08 00:06:54;;;;;;;5.47;3.20;;;16.60;99.90;;;;;;5017225;28;20565;-49
2023/07/08 00:09:21;;;;;;;3.80;3.50;;;16.60;99.90;;;;;;5019910;28;20266;-60
2023/07/08 00:11:48;;;;;;;4.00;3.23;;;16.60;99.90;;;;;;5022944;28;20215;-55
2023/07/08 00:14:15;;;;;;;4.17;3.37;;;16.60;99.90;;;;;;5010124;28;20772;-60
2023/07/08 00:16:42;;;;;;;4.63;3.80;;;16.60;99.90;;;;;;5021000;28;20355;-54
2023/07/08 00:19:10;;;;;;;4.10;3.80;;;16.50;99.90;;;;;;5012076;28;20207;-58
2023/07/08 00:21:37;;;;;;;5.53;3.90;;;16.40;99.90;;;;;;5000790;28;20200;-50
2023/07/08 00:24:06;;;;;;;5.40;3.80;;;16.40;99.90;;;;;;5021382;28;20297;-53
2023/07/08 00:26:33;;;;;;;4.07;3.77;;;16.40;99.90;;;;;;5010959;28;20764;-51
2023/07/08 00:29:00;;;;;;;3.93;3.43;;;16.30;99.90;;;;;;5022725;28;20338;-54
2023/07/08 00:31:27;;;;;;;4.20;3.47;;;16.30;99.90;;;;;;5018027;28;20188;-49
2023/07/08 00:33:56;;;;;;;4.37;3.97;;;16.30;99.90;;;;;;5016314;28;20220;-47
2023/07/08 00:36:24;;;;;;;5.80;3.83;;;16.20;99.90;;;;;;4989308;28;20215;-60
2023/07/08 00:38:51;;;;;;;5.03;3.90;;;16.20;99.90;;;;;;5015378;28;20203;-51
2023/07/08 00:41:23;;;;;;;5.83;4.17;;;16.10;99.90;;;;;;5021320;28;20574;-59
2023/07/08 00:43:52;;;;;;;4.33;3.77;;;16.20;99.90;;;;;;5022935;28;20219;-48
2023/07/08 00:46:32;;;;;;;6.00;4.73;;;16.10;99.90;;;;;;5018009;28;20589;-60
2023/07/08 00:49:04;;;;;;;6.50;4.40;;;16.10;99.90;;;;;;5015709;28;20216;-52
2023/07/08 00:51:30;;;;;;;6.43;4.00;;;16.00;99.90;;;;;;4990155;28;20238;-56
2023/07/08 00:53:57;;;;;;;4.83;4.10;;;16.00;99.90;;;;;;5016564;28;20281;-51
2023/07/08 00:56:33;;;;;;;6.87;3.90;;;16.00;99.90;;;;;;5019440;28;20730;-60
2023/07/08 00:59:04;;;;;;;5.00;3.73;;;16.00;99.90;;;;;;5022848;28;20184;-53
2023/07/08 01:01:34;;;;;;;5.00;3.90;;;15.90;99.90;;;;;;5012670;28;20204;-53
2023/07/08 01:04:07;;;;;;;4.43;4.00;;;15.90;99.90;;;;;;5024795;28;20222;-52
2023/07/08 01:06:39;;;;;;;5.73;4.27;;;15.90;99.90;;;;;;4992712;28;20207;-50
2023/07/08 01:09:09;;;;;;;6.37;4.43;;;15.80;99.90;;;;;;5018611;28;20302;-53
2023/07/08 01:11:40;;;;;;;4.67;3.73;;;15.80;99.90;;;;;;5016681;28;20257;-57
2023/07/08 01:14:10;;;;;;;4.23;3.90;;;15.80;99.90;;;;;;5019833;28;20694;-57
2023/07/08 01:16:38;;;;;;;6.03;4.00;;;15.70;99.90;;;;;;5021719;28;20196;-51
2023/07/08 01:19:07;;;;;;;6.63;3.70;;;15.70;99.90;;;;;;5014535;28;20592;-54
2023/07/08 01:21:36;;;;;;;9.07;6.23;;;15.60;99.90;;;;;;4998338;28;21038;-49
2023/07/08 01:24:07;;;;;;;6.93;4.37;;;15.60;99.90;;;;;;5015691;28;20276;-56
2023/07/08 01:26:38;;;;;;;5.40;4.40;;;15.60;99.90;;;;;;5019370;28;20815;-46
2023/07/08 01:29:07;;;;;;;6.10;4.27;;;15.60;99.90;;;;;;5025703;28;20220;-57
2023/07/08 01:31:34;;;;;;;8.90;4.30;;;15.60;99.90;;;;;;5015988;28;21021;-49
2023/07/08 01:34:01;;;;;;;6.13;4.10;;;15.60;99.90;;;;;;5023099;28;20204;-58
2023/07/08 01:36:32;;;;;;;3.97;3.67;;;15.50;99.90;;;;;;4993749;28;20216;-56
2023/07/08 01:38:59;;;;;;;4.40;3.90;;;15.50;99.90;;;;;;5020674;28;20242;-51
2023/07/08 01:41:27;;;;;;;6.03;3.73;;;15.50;99.90;;;;;;5013517;28;20831;-52
2023/07/08 01:43:54;;;;;;;4.53;4.13;;;15.50;99.90;;;;;;5024984;28;20224;-52
2023/07/08 01:46:24;;;;;;;4.97;4.53;;;15.40;99.90;;;;;;5022273;28;20254;-58
2023/07/08 01:48:57;;;;;;;5.43;4.93;;;15.40;99.90;;;;;;5018039;28;20208;-51
2023/07/08 01:51:26;;;;;;;6.93;4.23;;;15.40;99.90;;;;;;5017033;28;20204;-56
2023/07/08 01:53:53;;;;;;;6.70;4.60;;;15.40;99.90;;;;;;5000190;28;20236;-52
2023/07/08 01:56:20;;;;;;;4.90;4.30;;;15.40;99.90;;;;;;5022115;28;20192;-61
2023/07/08 01:58:48;;;;;;;6.30;4.50;;;15.40;99.90;;;;;;5014680;28;20195;-48
2023/07/08 02:01:15;;;;;;;4.63;4.23;;;15.30;99.90;;;;;;5030475;28;20208;-58
2023/07/08 02:03:42;;;;;;;5.43;4.37;;;15.30;99.90;;;;;;5016065;28;20219;-53
2023/07/08 02:06:09;;;;;;;4.70;4.30;;;15.30;99.90;;;;;;5021597;28;20779;-52
2023/07/08 02:08:36;;;;;;;5.70;4.47;;;15.30;99.90;;;;;;5002974;28;20220;-51
2023/07/08 02:11:03;;;;;;;5.00;4.30;;;15.20;99.90;;;;;;5014228;28;20250;-61
2023/07/08 02:13:30;;;;;;;5.73;3.83;;;15.20;99.90;;;;;;5015660;28;20235;-55
2023/07/08 02:15:59;;;;;;;4.80;4.03;;;15.20;99.90;;;;;;5019667;28;20204;-58
2023/07/08 02:18:27;;;;;;;5.67;3.97;;;15.20;99.90;;;;;;5021803;28;20215;-57
2023/07/08 02:20:55;;;;;;;4.37;3.53;;;15.20;99.90;;;;;;5025028;28;20658;-59
2023/07/08 02:23:22;;;;;;;7.40;4.40;;;15.10;99.90;;;;;;5021536;28;20290;-54
2023/07/08 02:25:52;;;;;;;5.07;4.37;;;15.10;99.90;;;;;;4998255;28;20222;-60
2023/07/08 02:28:19;;;;;;;4.33;3.93;;;15.10;99.90;;;;;;5019633;28;20196;-50
2023/07/08 02:30:46;;;;;;;4.50;4.10;;;15.10;99.90;;;;;;5024405;28;20216;-54
2023/07/08 02:33:17;;;;;;;4.47;4.07;;;15.10;99.90;;;;;;5020833;28;20230;-50
2023/07/08 02:35:44;;;;;;;5.20;4.30;;;15.10;99.90;;;;;;5020146;28;20581;-50
2023/07/08 02:38:12;;;;;;;6.40;4.23;;;15.00;99.90;;;;;;5018073;28;20275;-47
2023/07/08 02:40:41;;;;;;;6.53;4.30;;;15.00;99.90;;;;;;5000544;28;20614;-48
2023/07/08 02:43:08;;;;;;;4.50;4.10;;;15.00;99.90;;;;;;5020888;28;20915;-48
2023/07/08 02:45:34;;;;;;;8.73;4.17;;;15.00;99.90;;;;;;5016479;28;20208;-53
2023/07/08 02:48:01;;;;;;;4.73;4.33;;;15.00;99.90;;;;;;5017723;28;20196;-60
2023/07/08 02:50:30;;;;;;;5.57;4.30;;;15.00;99.90;;;;;;5019469;28;20353;-51
2023/07/08 02:52:56;;;;;;;7.10;4.40;;;15.00;99.90;;;;;;5037066;28;20203;-54
2023/07/08 02:55:23;;;;;;;6.83;4.60;;;14.90;99.90;;;;;;4999061;28;24666;-49
2023/07/08 02:57:50;;;;;;;5.27;4.87;;;14.90;99.90;;;;;;5022445;28;20215;-60
2023/07/08 03:00:17;;;;;;;8.30;5.00;;;14.80;99.90;;;;;;5017001;28;20936;-55
2023/07/08 03:02:44;;;;;;;7.67;5.10;;;14.80;99.90;;;;;;5023063;28;20283;-53
2023/07/08 03:05:11;;;;;;;5.40;4.90;;;14.80;99.90;;;;;;5015251;28;20851;-48
2023/07/08 03:07:39;;;;;;;6.57;4.67;;;14.80;99.90;;;;;;5024134;28;20196;-49
2023/07/08 03:10:07;;;;;;;6.50;4.90;;;14.80;99.90;;;;;;5019253;28;20415;-51
2023/07/08 03:12:33;;;;;;;5.60;5.00;;;14.70;99.90;;;;;;4996593;28;20269;-56
2023/07/08 03:15:01;;;;;;;5.00;4.40;;;14.70;99.90;;;;;;5021463;28;20302;-60
2023/07/08 03:17:28;;;;;;;5.03;4.53;;;14.70;99.90;;;;;;5023045;28;20353;-49
2023/07/08 03:19:54;;;;;;;6.27;4.43;;;14.70;99.90;;;;;;5022544;28;20188;-57
2023/07/08 03:22:21;;;;;;;5.67;4.17;;;14.60;99.90;;;;;;5022230;28;20200;-52
2023/07/08 03:24:49;;;;;;;7.73;5.17;;;14.60;99.90;;;;;;5017054;28;20247;-57
2023/07/08 03:27:20;;;;;;;5.43;4.87;;;14.60;99.90;;;;;;4997686;28;20328;-47
2023/07/08 03:29:49;;;;;;;5.80;5.03;;;14.60;99.90;;;;;;5023298;28;20294;-57
2023/07/08 03:32:16;;;;;;;5.40;4.90;;;14.60;99.90;;;;;;5013274;28;20211;-46
2023/07/08 03:34:43;;;;;;;4.97;4.57;;;14.60;99.90;;;;;;5022194;28;20223;-55
2023/07/08 03:37:12;;;;;;;5.70;4.87;;;14.60;99.90;;;;;;5013352;28;20227;-48
2023/07/08 03:39:39;;;;;;;5.23;4.83;;;14.50;99.90;;;;;;5023713;28;20704;-53
2023/07/08 03:42:08;;;;;;;5.57;5.03;;;14.50;99.90;;;;;;5015285;28;20634;-50
2023/07/08 03:44:35;;;;;;;6.53;5.63;;;14.50;99.90;;;;;;4988637;28;20760;-61
2023/07/08 03:47:01;;;;;;;4.63;4.20;;;14.50;99.90;;;;;;5015757;28;20265;-56
2023/07/08 03:49:29;;;;;;;5.30;4.70;;;14.50;99.90;;;;;;5009816;28;20606;-58
2023/07/08 03:51:57;;;;;;;4.70;4.30;;;14.60;99.90;;;;;;5019770;28;20782;-55
2023/07/08 03:54:25;;;;;;;5.40;4.27;;;14.50;99.90;;;;;;5021426;28;20216;-55
2023/07/08 03:56:54;;;;;;;5.80;4.50;;;14.60;99.90;;;;;;5020837;28;20202;-50
2023/07/08 03:59:24;;;;;;;4.73;4.33;;;14.50;99.90;;;;;;4993072;28;20731;-56
2023/07/08 04:01:51;;;;;;;6.20;4.60;;;14.50;99.90;;;;;;5008560;28;20196;-54
2023/07/08 04:04:18;;;;;;;5.80;4.57;;;14.50;99.90;;;;;;5015590;28;20511;-58
2023/07/08 04:06:45;;;;;;;5.20;4.57;;;14.50;99.90;;;;;;5012149;28;20199;-54
2023/07/08 04:09:13;;;;;;;5.70;4.40;;;14.50;99.90;;;;;;5022060;28;20224;-52
2023/07/08 04:11:40;;;;;;;7.20;4.90;;;14.60;99.90;;;;;;5015485;28;20230;-55
2023/07/08 04:14:09;;;;;;;8.27;5.10;;;14.60;99.90;;;;;;5003441;28;20227;-55
2023/07/08 04:16:45;;;;;;;5.97;4.73;;;14.70;99.90;;;;;;5018714;28;20192;-54
2023/07/08 04:19:14;;;;;;;4.47;3.83;;;14.70;99.90;;;;;;5022406;28;20274;-52
2023/07/08 04:21:42;;;;;;;8.67;4.63;;;14.80;99.90;;;;;;5014425;28;20204;-54
2023/07/08 04:24:10;;;;;;;5.93;4.47;;;14.80;99.90;;;;;;5017567;28;20212;-56
2023/07/08 04:26:39;;;;;;;5.17;4.20;;;14.80;99.90;;;;;;5019021;28;20215;-50
2023/07/08 04:29:08;;;;;;;4.63;3.97;;;14.90;99.90;;;;;;5021787;28;20224;-55
2023/07/08 04:31:35;;;;;;;4.53;3.77;;;14.90;99.90;;;;;;4997962;28;20282;-54
2023/07/08 04:34:03;;;;;;;6.43;3.90;;;15.00;99.90;;;;;;5009885;28;20301;-55
2023/07/08 04:36:30;;;;;;;4.27;3.47;;;15.10;99.90;;;;;;5010609;28;21035;-54
2023/07/08 04:38:57;;;;;;;5.33;4.40;;;15.10;99.90;;;;;;5015533;28;20212;-55
2023/07/08 04:41:25;;;;;;;5.20;3.90;;;15.20;99.90;;;;;;5020230;28;20212;-52
2023/07/08 04:43:53;;;;;;;4.20;3.87;;;15.20;99.90;;;;;;5023265;28;20223;-56
2023/07/08 04:46:27;;;;;;;5.00;3.67;;;15.30;99.90;;;;;;4997280;28;20269;-53
2023/07/08 04:48:55;;;;;;;3.97;3.63;;;15.40;99.90;;;;;;5016739;28;20262;-54
2023/07/08 04:51:24;;;;;;;3.87;3.50;;;15.40;99.90;;;;;;5014016;28;20940;-55
2023/07/08 04:53:51;;;;;;;4.73;3.67;;;15.50;99.90;;;;;;5016516;28;20220;-54
2023/07/08 04:56:18;;;;;;;6.13;3.70;;;15.50;99.90;;;;;;5019111;28;20772;-53
2023/07/08 04:58:45;;;;;;;3.97;3.67;;;15.60;99.90;;;;;;5020337;28;20223;-50
2023/07/08 05:01:12;;;;;;;5.53;4.00;;;15.60;99.90;;;;;;4997830;28;20329;-55
2023/07/08 05:03:39;;;;;;;12.00;3.77;;;15.70;99.90;;;;;;5021679;28;20254;-54
2023/07/08 05:06:06;;;;;;;6.13;3.90;;;15.80;99.90;;;;;;5013557;28;20622;-57
2023/07/08 05:08:34;;;;;;;4.33;3.20;;;15.80;99.90;;;;;;5015864;28;20200;-52
2023/07/08 05:11:01;;;;;;;6.13;3.60;;;15.90;99.90;;;;;;5016107;28;20240;-58
2023/07/08 05:13:28;;;;;;;4.53;3.50;;;15.90;99.90;;;;;;5017857;28;20220;-54
2023/07/08 05:15:55;;;;;;;4.80;3.40;;;16.00;99.90;;;;;;5016364;28;20624;-58
2023/07/08 05:18:21;;;;;;;4.60;3.90;;;16.10;99.90;;;;;;5004872;28;20289;-50
2023/07/08 05:20:51;;;;;;;4.03;3.70;;;16.10;99.90;;;;;;5015661;28;20251;-55
2023/07/08 05:23:18;;;;;;;4.07;3.23;;;16.20;99.90;;;;;;5007238;28;20255;-56
2023/07/08 05:25:46;;;;;;;4.10;3.70;;;16.30;99.90;;;;;;5020106;28;20644;-55
2023/07/08 05:28:13;;;;;;;4.30;3.50;;;16.30;99.90;;;;;;5017157;28;20205;-57
2023/07/08 05:30:41;;;;;;;3.90;3.50;;;16.40;99.90;;;;;;5022088;28;20244;-55
2023/07/08 05:33:08;;;;;;;3.70;3.40;;;16.40;99.90;;;;;;4990039;28;20309;-57
2023/07/08 05:35:35;;;;;;;4.47;4.07;;;16.50;99.90;;;;;;5014443;28;20204;-56
2023/07/08 05:38:02;;;;;;;4.57;3.33;;;16.60;99.90;;;;;;5011790;28;20615;-58
2023/07/08 05:40:29;;;;;;;3.50;3.30;;;16.60;99.90;;;;;;5013751;28;20290;-49
2023/07/08 05:42:57;;;;;;;3.60;3.30;;;16.70;99.90;;;;;;5020332;28;20255;-55
2023/07/08 05:45:24;;;;;;;5.33;3.30;;;16.80;99.90;;;;;;5018221;28;20281;-51
2023/07/08 05:47:51;;;;;;;4.03;3.53;;;16.90;99.90;;;;;;5015083;28;20192;-50
2023/07/08 05:50:18;;;;;;;6.97;3.87;;;16.90;99.90;;;;;;4998175;28;20215;-52
2023/07/08 05:52:45;;;;;;;3.13;2.93;;;17.00;99.90;;;;;;5016099;28;20208;-53
2023/07/08 05:55:12;;;;;;;4.80;3.63;;;17.00;99.90;;;;;;5014313;28;20236;-53
2023/07/08 05:57:38;;;;;;;4.00;3.03;;;17.20;99.90;;;;;;5025073;28;20266;-54
2023/07/08 06:00:09;;;;;;;4.03;3.20;;;17.20;99.90;;;;;;5016238;28;20246;-57
2023/07/08 06:02:39;;;;;;;3.70;2.80;;;17.30;99.90;;;;;;5021612;28;20764;-50
2023/07/08 06:05:06;;;;;;;3.73;3.23;;;17.50;99.90;;;;;;5004047;28;20243;-57
2023/07/08 06:07:33;;;;;;;4.50;3.30;;;17.60;99.90;;;;;;5015758;28;20322;-53
2023/07/08 06:10:00;;;;;;;3.87;3.00;;;17.80;99.90;;;;;;5013250;28;20306;-55
2023/07/08 06:12:28;;;;;;;4.93;3.23;;;17.80;99.90;;;;;;5014802;28;20223;-55
2023/07/08 06:14:55;;;;;;;4.47;3.07;;;17.90;99.90;;;;;;5022873;28;20752;-57
2023/07/08 06:17:23;;;;;;;3.17;2.80;;;18.00;99.90;;;;;;5020505;28;20192;-56
2023/07/08 06:19:50;;;;;;;4.33;3.13;;;18.10;99.90;;;;;;5002674;28;20212;-56
2023/07/08 06:22:17;;;;;;;5.57;3.03;;;18.20;99.90;;;;;;5012423;28;20204;-54
2023/07/08 06:24:44;;;;;;;7.10;2.63;;;18.40;99.90;;;;;;5021460;28;20349;-52
2023/07/08 06:27:11;;;;;;;2.87;2.67;;;18.50;99.90;;;;;;5015179;28;20223;-54
2023/07/08 06:29:38;;;;;;;3.00;2.80;;;18.60;99.90;;;;;;5023181;28;20208;-56
2023/07/08 06:32:06;;;;;;;3.83;2.93;;;18.70;99.90;;;;;;5020847;28;20732;-55
2023/07/08 06:34:34;;;;;;;3.30;2.70;;;18.90;99.90;;;;;;4998578;28;20262;-55
2023/07/08 06:37:01;;;;;;;6.50;3.03;;;18.90;99.90;;;;;;5017965;28;20614;-55
2023/07/08 06:39:28;;;;;;;4.47;2.80;;;19.00;99.90;;;;;;5018145;28;20220;-54
2023/07/08 06:41:54;;;;;;;4.10;2.53;;;19.10;99.90;;;;;;5017496;28;20760;-53
2023/07/08 06:44:27;;;;;;;3.30;3.00;;;19.20;99.90;;;;;;5020004;28;20215;-51
2023/07/08 06:46:55;;;;;;;3.43;3.03;;;19.30;99.90;;;;;;5017678;28;20200;-52
2023/07/08 06:49:23;;;;;;;2.60;2.40;;;19.50;99.90;;;;;;5011846;28;20295;-53
2023/07/08 06:51:51;;;;;;;3.90;2.67;;;19.50;99.90;;;;;;5002514;28;20224;-56
2023/07/08 06:54:17;;;;;;;3.10;2.80;;;19.70;99.90;;;;;;5014020;28;20231;-55
2023/07/08 06:56:44;;;;;;;2.90;2.60;;;19.90;99.90;;;;;;5017719;28;20242;-54
2023/07/08 06:59:11;;;;;;;2.73;2.30;;;20.00;99.90;;;;;;5011101;28;20246;-55
2023/07/08 07:01:38;;;;;;;3.73;2.40;;;20.10;99.90;;;;;;5021542;28;20274;-52
2023/07/08 07:04:05;;;;;;;4.03;2.43;;;20.20;99.90;;;;;;5017127;28;20258;-55
2023/07/08 07:06:32;;;;;;;4.40;2.57;;;20.30;99.90;;;;;;4996157;28;20204;-53
2023/07/08 07:09:00;;;;;;;2.43;2.23;;;20.40;99.90;;;;;;5020099;28;20204;-55
2023/07/08 07:11:28;;;;;;;4.03;2.80;;;20.50;99.90;;;;;;5005732;28;20309;-54
2023/07/08 07:13:54;;;;;;;2.57;2.37;;;20.50;99.90;;;;;;5018393;28;20213;-55
2023/07/08 07:16:21;;;;;;;4.13;2.90;;;20.60;99.90;;;;;;5011282;28;20291;-53
2023/07/08 07:18:49;;;;;;;3.43;2.57;;;20.60;99.90;;;;;;5018932;28;20215;-52
2023/07/08 07:21:16;;;;;;;2.50;2.30;;;20.70;99.90;;;;;;4991491;28;20228;-49
2023/07/08 07:23:43;;;;;;;4.77;2.20;;;20.80;99.90;;;;;;5017281;28;20289;-55
2023/07/08 07:26:11;;;;;;;2.63;2.40;;;20.80;99.90;;;;;;5012990;28;20912;-55
2023/07/08 07:28:38;;;;;;;3.47;2.00;;;20.80;99.90;;;;;;5017251;28;21671;-56
2023/07/08 07:31:07;;;;;;;2.70;2.17;;;20.90;99.90;;;;;;5018591;28;20211;-52
2023/07/08 07:33:35;;;;;;;3.27;2.47;;;21.00;99.90;;;;;;5016709;28;20274;-56
2023/07/08 07:36:01;;;;;;;2.30;2.10;;;21.10;99.90;;;;;;5001285;28;20758;-56
2023/07/08 07:38:28;;;;;;;4.03;2.20;;;21.20;99.90;;;;;;4997714;28;20211;-55
2023/07/08 07:40:56;;;;;;;2.40;2.20;;;21.30;99.90;;;;;;5015818;28;20775;-54
2023/07/08 07:43:24;;;;;;;2.23;2.00;;;21.40;99.90;;;;;;5011827;28;20313;-54
2023/07/08 07:45:52;;;;;;;5.10;2.40;;;21.50;99.90;;;;;;5019276;28;20228;-55
2023/07/08 07:48:19;;;;;;;2.40;2.20;;;21.50;99.90;;;;;;5016521;28;20758;-53
2023/07/08 07:50:47;;;;;;;6.30;2.20;;;21.60;99.90;;;;;;5015235;28;20235;-52
2023/07/08 07:53:14;;;;;;;4.33;2.27;;;21.70;99.90;;;;;;4991677;28;20243;-54
2023/07/08 07:55:41;;;;;;;3.53;2.57;;;21.80;99.90;;;;;;5012626;28;20496;-51
2023/07/08 07:58:11;;;;;;;2.97;2.30;;;22.00;99.90;;;;;;5011333;28;20269;-56
2023/07/08 08:00:39;;;;;;;2.37;2.17;;;22.00;99.90;;;;;;5013180;28;20196;-53
2023/07/08 08:03:06;;;;;;;3.03;2.30;;;22.10;99.90;;;;;;5023260;28;20199;-56
2023/07/08 08:05:33;;;;;;;4.67;2.20;;;22.20;99.90;;;;;;5020368;28;20184;-54
2023/07/08 08:08:00;;;;;;;3.33;2.30;;;22.20;99.90;;;;;;4996037;28;20208;-51
2023/07/08 08:10:27;;;;;;;2.23;2.03;;;22.30;99.90;;;;;;5014927;28;20224;-55
2023/07/08 08:12:53;;;;;;;2.30;2.10;;;22.30;99.90;;;;;;5004342;28;20227;-53
2023/07/08 08:15:22;;;;;;;3.80;2.10;;;22.40;99.90;;;;;;5000164;28;20207;-55
2023/07/08 08:17:51;;;;;;;2.73;2.13;;;;;;;;;;5017668;28;20192;-55
2023/07/08 08:20:19;;;;;;;4.95;2.58;;;;;;;;;;5013714;28;20196;-55
2023/07/08 08:22:46;;;;;;;2.53;2.17;;;;;;;;;;4995058;28;20208;-55
2023/07/08 08:25:13;;;;;;;3.17;2.33;;;23.00;99.90;;;;;;5020020;28;20235;-54
2023/07/08 08:27:40;;;;;;;3.45;2.25;;;23.00;99.90;;;;;;5005570;28;20212;-53
2023/07/08 08:30:08;;;;;;;2.67;2.33;;;23.00;99.90;;;;;;5022109;28;20234;-53
2023/07/08 08:32:35;;;;;;;2.30;2.10;;;23.00;99.90;;;;;;5014816;28;20232;-53
2023/07/08 08:35:03;;;;;;;4.55;2.08;;;23.10;99.90;;;;;;5016763;28;20226;-51
2023/07/08 08:37:30;;;;;;;3.50;1.95;;;23.20;99.90;;;;;;5013184;28;20250;-54
2023/07/08 08:39:57;;;;;;;1.73;1.63;;;23.40;99.90;;;;;;5002872;28;20666;-53
2023/07/08 08:42:28;;;;;;;2.97;2.20;;;23.40;99.90;;;;;;5009568;28;20215;-54
2023/07/08 08:44:58;;;;;;;2.75;1.90;;;23.40;99.90;;;;;;5013480;28;20698;-55
2023/07/08 08:47:34;;;;;;;2.65;2.13;;;23.40;99.90;;;;;;5005967;28;20299;-56
2023/07/08 08:50:11;;;;;;;2.25;2.05;;;23.50;99.90;;;;;;5021568;28;20191;-52
2023/07/08 08:52:41;;;;;;;3.00;1.98;;;23.60;99.90;;;;;;5012661;28;20243;-56
2023/07/08 08:55:12;;;;;;;3.03;1.98;;;23.70;99.90;;;;;;4990990;28;20297;-53
2023/07/08 08:57:46;;;;;;;1.95;1.85;;;23.90;99.50;;;;;;5004101;28;20215;-53
2023/07/08 09:00:20;;;;;;;2.40;2.20;;;23.90;98.30;;;;;;5005140;28;20258;-54
2023/07/08 09:02:58;;;;;;;3.92;2.20;;;24.00;97.70;;;;;;5012369;28;20207;-56
2023/07/08 09:05:27;;;;;;;3.05;2.30;;;24.10;97.20;;;;;;5018522;28;20219;-57
2023/07/08 09:08:09;;;;;;;3.28;2.42;;;24.20;97.30;;;;;;5022302;28;20196;-57
2023/07/08 09:10:44;;;;;;;4.32;2.22;;;24.20;97.80;;;;;;4992173;28;20297;-52
2023/07/08 09:13:20;;;;;;;4.00;2.28;;;24.30;97.70;;;;;;5010179;28;20239;-54
2023/07/08 09:15:48;;;;;;;9.55;2.78;;;24.40;96.90;;;;;;5022125;28;20286;-55
2023/07/08 09:18:22;;;;;;;4.25;2.15;;;24.50;97.30;;;;;;5011230;28;20257;-52
2023/07/08 09:20:51;;;;;;;2.65;2.00;;;24.60;97.70;;;;;;5010391;28;20199;-56
2023/07/08 09:23:22;;;;;;;3.63;2.05;;;24.70;96.80;;;;;;5016961;28;20313;-53
2023/07/08 09:25:55;;;;;;;2.67;2.45;;;24.70;95.90;;;;;;4986285;28;20298;-52
2023/07/08 09:28:22;;;;;;;2.60;2.15;;;24.80;95.30;;;;;;5010734;28;20958;-50
2023/07/08 09:30:53;;;;;;;3.78;2.25;;;24.70;98.90;;;;;;5025335;28;20192;-55
2023/07/08 09:33:20;;;;;;;2.50;2.30;;;;;;;;;;5009476;28;20277;-53
2023/07/08 09:35:49;;;;;;;1.92;1.83;;;24.90;94.80;;;;;;5019151;28;20200;-52
2023/07/08 09:38:18;;;;;;;2.28;2.03;;;24.90;95.10;;;;;;5020222;28;20200;-55
2023/07/08 09:40:49;;;;;;;2.92;2.72;;;25.00;94.60;;;;;;4994533;28;20674;-52
2023/07/08 09:43:27;;;;;;;3.38;3.17;;;25.10;94.50;;;;;;5019827;28;20300;-54
2023/07/08 09:45:59;;;;;;;3.33;2.33;;;25.20;94.20;;;;;;5004151;28;20615;-53
2023/07/08 09:48:28;;;;;;;2.85;2.35;;;25.30;93.90;;;;;;5012869;28;20269;-55
2023/07/08 09:50:59;;;;;;;4.63;2.25;;;25.30;94.40;;;;;;5021051;28;20949;-53
2023/07/08 09:53:27;;;;;;;5.03;2.20;;;25.40;94.00;;;;;;5020809;28;20341;-51
2023/07/08 09:55:57;;;;;;;2.40;2.20;;;25.40;94.30;;;;;;5002624;28;20212;-55
2023/07/08 09:58:26;;;;;;;3.90;2.13;;;25.60;94.40;;;;;;5011666;28;20324;-56
2023/07/08 10:00:56;;;;;;;4.20;2.28;;;25.60;94.40;;;;;;5012879;28;20232;-56
2023/07/08 10:03:26;;;;;;;3.67;2.80;;;25.70;93.50;;;;;;5011847;28;20224;-53
2023/07/08 10:05:57;;;;;;;3.97;2.05;;;25.70;92.90;;;;;;5023537;28;20196;-54
2023/07/08 10:08:28;;;;;;;2.33;2.13;;;25.70;91.60;;;;;;5016610;28;20899;-55
2023/07/08 10:10:59;;;;;;;2.08;1.98;;;25.90;92.20;;;;;;4995686;28;20282;-52
2023/07/08 10:13:34;;;;;;;2.22;2.03;;;25.90;91.90;;;;;;5016893;28;20273;-52
2023/07/08 10:16:13;;;;;;;2.20;2.10;;;25.90;91.50;;;;;;5012948;28;20227;-54
2023/07/08 10:18:40;;;;;;;4.05;2.20;;;25.90;90.90;;;;;;5015510;28;20199;-50
2023/07/08 10:21:14;;;;;;;2.95;2.30;;;26.00;90.80;;;;;;5019693;28;20262;-54
2023/07/08 10:23:49;;;;;;;2.40;2.28;;;26.00;91.20;;;;;;5022322;28;20266;-52
2023/07/08 10:26:26;;;;;;;3.50;2.15;;;26.00;90.90;;;;;;4999752;28;20238;-55
2023/07/08 10:29:09;;;;;;;2.65;2.10;;;26.10;90.70;;;;;;5020393;28;20192;-55
2023/07/08 10:31:52;;;;;;;2.70;2.50;;;26.10;91.10;;;;;;5011996;28;20219;-50
2023/07/08 10:34:29;;;;;;;2.10;2.00;;;26.20;91.70;;;;;;5005523;28;20222;-55
2023/07/08 10:37:08;;;;;;;4.22;2.50;;;26.40;90.80;;;;;;5020702;28;20228;-51
2023/07/08 10:39:56;;;;;;;3.28;2.35;;;26.40;90.30;;;;;;5023319;28;20192;-51
2023/07/08 10:42:35;;;;;;;2.75;2.47;;;26.50;90.40;;;;;;4999271;28;20275;-55
2023/07/08 10:45:08;;;;;;;2.38;2.15;;;;;;;;;;5013723;28;20219;-55
2023/07/08 10:47:42;;;;;;;3.45;2.70;;;;;;;;;;5016999;28;20192;-54
2023/07/08 10:50:18;;;;;;;3.15;2.45;;;;;;;;;;5015156;28;20212;-56
2023/07/08 10:52:52;;;;;;;4.15;2.40;;;;;;;;;;5024866;28;20323;-53
2023/07/08 10:55:30;;;;;;;3.22;2.13;;;;;;;;;;5019901;28;20195;-53
2023/07/08 10:58:09;;;;;;;3.45;3.13;;;;;;;;;;5016665;28;20267;-53
2023/07/08 11:00:39;;;;;;;3.15;2.50;;;;;;;;;;5014648;28;20202;-54
2023/07/08 11:03:18;;;;;;;3.38;2.50;;;;;;;;;;5007763;28;20276;-55
2023/07/08 11:05:47;;;;;;;2.70;2.50;;;27.30;99.90;;;;;;5010920;28;20191;-52
2023/07/08 11:08:20;;;;;;;3.10;2.20;;;27.20;86.40;;;;;;5016623;28;20196;-55
2023/07/08 11:10:53;;;;;;;2.40;2.20;;;27.20;85.70;;;;;;5015607;28;20227;-52
2023/07/08 11:13:22;;;;;;;2.70;2.30;;;27.20;84.70;;;;;;4997110;28;20241;-52
2023/07/08 11:15:55;;;;;;;3.10;2.53;;;27.20;84.50;;;;;;5021062;28;20230;-51
2023/07/08 11:18:30;;;;;;;4.45;2.30;;;27.20;83.70;;;;;;5003619;28;20223;-53
2023/07/08 11:21:03;;;;;;;3.17;2.55;;;27.30;83.90;;;;;;5016233;28;20191;-54
2023/07/08 11:23:33;;;;;;;2.35;2.25;;;27.40;81.00;;;;;;5015422;28;20370;-52
2023/07/08 11:26:11;;;;;;;5.10;2.50;;;27.40;83.00;;;;;;5020304;28;20196;-52
2023/07/08 11:28:38;;;;;;;2.65;2.33;;;27.40;82.30;;;;;;5019246;28;20204;-54
2023/07/08 11:31:06;;;;;;;4.28;2.42;;;27.40;84.30;;;;;;4999918;28;20262;-54
2023/07/08 11:33:34;;;;;;;3.22;2.80;;;27.40;84.60;;;;;;5004950;28;20366;-53
2023/07/08 11:36:03;;;;;;;3.63;2.40;;;27.40;81.90;;;;;;5021247;28;20658;-50
2023/07/08 11:38:33;;;;;;;3.65;2.70;;;27.40;81.60;;;;;;5015699;28;20243;-53
2023/07/08 11:41:02;;;;;;;3.80;2.60;;;27.50;82.90;;;;;;5021945;28;20220;-51
2023/07/08 11:43:47;;;;;;;2.65;2.45;;;27.60;81.40;;;;;;5019277;28;20236;-52
2023/07/08 11:46:19;;;;;;;2.45;2.25;;;27.70;80.90;;;;;;4989717;28;20216;-53
2023/07/08 11:48:49;;;;;;;2.30;2.10;;;27.80;79.30;;;;;;5009096;28;20215;-57
2023/07/08 11:51:20;;;;;;;5.75;2.75;;;27.90;79.60;;;;;;5021322;28;20191;-55
2023/07/08 11:53:51;;;;;;;2.40;2.20;;;27.90;80.60;;;;;;5012919;28;20289;-55
2023/07/08 11:56:24;;;;;;;9.48;3.10;;;28.00;77.70;;;;;;5017555;28;20279;-52
2023/07/08 11:59:00;;;;;;;2.95;2.40;;;28.00;78.90;;;;;;5017961;28;20243;-55
2023/07/08 12:01:32;;;;;;;2.72;2.35;;;28.00;77.80;;;;;;4996819;28;20230;-55
2023/07/08 12:04:02;;;;;;;2.53;2.10;;;28.00;78.70;;;;;;5020266;28;20212;-55
2023/07/08 12:06:49;;;;;;;2.72;2.53;;;28.10;78.90;;;;;;5011523;28;20300;-55
2023/07/08 12:09:24;;;;;;;2.60;2.40;;;28.20;77.70;;;;;;5009552;28;20207;-56
2023/07/08 12:11:55;;;;;;;3.10;2.17;;;28.30;80.00;;;;;;5009203;28;20226;-57
2023/07/08 12:14:24;;;;;;;2.22;2.03;;;28.40;80.80;;;;;;5021771;28;20211;-51
2023/07/08 12:16:51;;;;;;;3.75;2.25;;;28.50;78.70;;;;;;4999560;28;20200;-54
2023/07/08 12:19:21;;;;;;;3.83;2.47;;;28.60;76.90;;;;;;5022146;28;20219;-52
2023/07/08 12:21:48;;;;;;;2.38;2.25;;;28.60;77.70;;;;;;5001825;28;20190;-57
2023/07/08 12:24:16;;;;;;;2.90;2.70;;;28.70;76.50;;;;;;5014600;28;20234;-57
2023/07/08 12:26:43;;;;;;;2.58;2.42;;;28.60;75.80;;;;;;5019632;28;20180;-55
2023/07/08 12:29:13;;;;;;;3.92;2.45;;;28.70;77.40;;;;;;5023041;28;20211;-56
2023/07/08 12:31:43;;;;;;;2.60;2.40;;;28.70;76.40;;;;;;4995315;28;20224;-55
2023/07/08 12:34:14;;;;;;;2.83;2.42;;;28.80;75.60;;;;;;5015321;28;20228;-54
2023/07/08 12:36:43;;;;;;;3.63;2.65;;;28.90;77.90;;;;;;5009392;28;20207;-55
2023/07/08 12:39:14;;;;;;;2.60;2.40;;;29.00;77.30;;;;;;5015305;28;20266;-54
2023/07/08 12:41:42;;;;;;;2.03;1.92;;;29.10;78.10;;;;;;5018554;28;20220;-55
2023/07/08 12:44:16;;;;;;;2.60;2.40;;;29.10;77.20;;;;;;5019420;28;20702;-52
2023/07/08 12:46:44;;;;;;;2.30;2.20;;;29.20;74.80;;;;;;5017435;28;20317;-53
2023/07/08 12:49:11;;;;;;;2.65;2.42;;;29.30;75.70;;;;;;5001160;28;20235;-51
2023/07/08 12:51:38;;;;;;;2.50;2.30;;;29.50;73.10;;;;;;5009729;28;20199;-54
2023/07/08 12:54:05;;;;;;;2.40;2.30;;;29.70;70.20;;;;;;5022425;28;20698;-53
2023/07/08 12:56:31;;;;;;;2.85;2.65;;;29.90;69.50;;;;;;5007406;28;20673;-53
2023/07/08 12:58:59;;;;;;;2.53;2.33;;;30.10;73.60;;;;;;5023667;28;20204;-55
2023/07/08 13:01:30;;;;;;;2.85;2.15;;;30.40;68.40;;;;;;5025057;28;20200;-51